Time;durP1;ratioP1;P1;durP2;ratioP2;P2;SDS_P1;SDS_P2;PMS_P1;PMS_P2;Temp;Humidity;BMP_temperature;BMP_pressure;BME280_temperature;BME280_humidity;BME280_pressure;Samples;Min_cycle;Max_cycle;Signal;HPM_P1;HPM_P2
2022/03/07 00:05:51;;;;;;;79.27;31.83;;;;;;;-1.12;64.71;99485.68;4185678;83;21059;-88
2022/03/07 00:11:53;;;;;;;71.30;29.70;;;;;;;-1.14;65.19;99497.81;4183048;83;21050;-87
2022/03/07 00:18:09;;;;;;;57.90;27.17;;;;;;;-1.16;65.57;99497.29;4182600;83;21078;-87
2022/03/07 00:24:10;;;;;;;68.83;31.27;;;;;;;-1.21;65.79;99495.47;4191257;83;21043;-87
2022/03/07 00:30:15;;;;;;;62.25;29.27;;;;;;;-1.21;66.24;99490.63;4185863;83;21551;-87
2022/03/07 00:36:17;;;;;;;59.93;27.80;;;;;;;-1.25;66.60;99493.08;4184214;83;21619;-88
2022/03/07 00:42:19;;;;;;;49.43;26.63;;;;;;;-1.28;66.90;99494.21;4184897;83;21066;-88
2022/03/07 00:48:31;;;;;;;62.40;30.92;;;;;;;-1.30;67.08;99492.34;4185991;83;21079;-88
2022/03/07 00:54:48;;;;;;;52.08;25.90;;;;;;;-1.33;67.22;99496.95;4159121;84;21004;-88
2022/03/07 01:01:09;;;;;;;59.33;26.10;;;;;;;-1.34;67.31;99496.14;4228651;82;20968;-87
2022/03/07 01:07:31;;;;;;;53.37;26.10;;;;;;;-1.37;67.28;99491.34;4204488;83;20995;-87
2022/03/07 01:13:32;;;;;;;56.10;27.80;;;;;;;-1.41;67.49;99475.55;4216725;82;21006;-89
2022/03/07 01:19:34;;;;;;;62.47;30.37;;;;;;;-1.45;67.71;99483.90;4161962;84;21126;-88
2022/03/07 01:25:36;;;;;;;53.20;27.77;;;;;;;-1.50;67.56;99487.20;4149067;83;20987;-87
2022/03/07 01:31:37;;;;;;;53.70;26.87;;;;;;;-1.53;67.70;99473.78;4186792;83;22289;-88
2022/03/07 01:37:40;;;;;;;55.97;27.67;;;;;;;-1.55;67.94;99476.50;4215200;82;21019;-87
2022/03/07 01:43:42;;;;;;;60.97;26.57;;;;;;;-1.62;67.98;99472.80;4221917;83;21089;-87
2022/03/07 01:49:44;;;;;;;47.23;24.17;;;;;;;-1.68;68.21;99473.95;4149765;83;21092;-88
2022/03/07 01:55:45;;;;;;;57.90;27.83;;;;;;;-1.69;68.60;99466.95;4119201;84;21035;-87
2022/03/07 02:01:48;;;;;;;48.40;25.87;;;;;;;-1.77;68.70;99472.97;4116801;85;21530;-86
2022/03/07 02:15:30;;;;;;;50.33;26.40;;;;;;;-1.81;69.59;99471.91;4113048;85;21093;-87
2022/03/07 02:28:12;;;;;;;54.73;26.73;;;;;;;-1.97;69.83;99463.20;4032843;86;21109;-87
2022/03/07 02:47:32;;;;;;;53.47;26.87;;;;;;;-2.12;69.94;99449.12;4046182;86;21131;-87
2022/03/07 02:53:33;;;;;;;56.27;26.47;;;;;;;-2.15;70.14;99441.64;4098078;84;21112;-87
2022/03/07 02:59:35;;;;;;;48.83;25.37;;;;;;;-2.13;70.02;99448.31;4130447;85;21014;-87
2022/03/07 03:05:37;;;;;;;46.90;25.33;;;;;;;-2.13;70.38;99438.92;4135599;85;21008;-87
2022/03/07 03:11:53;;;;;;;48.67;24.70;;;;;;;-2.10;70.53;99432.22;4113951;85;21419;-87
2022/03/07 03:17:54;;;;;;;42.58;24.07;;;;;;;-2.10;70.35;99434.34;4164238;83;21682;-88
2022/03/07 03:23:56;;;;;;;48.90;24.23;;;;;;;-2.10;71.00;99437.58;4172579;84;21058;-87
2022/03/07 03:29:57;;;;;;;47.63;24.77;;;;;;;-2.08;70.71;99438.89;4174712;84;21070;-87
2022/03/07 03:35:59;;;;;;;49.73;24.83;;;;;;;-2.08;70.91;99437.55;4174720;84;21939;-86
2022/03/07 03:42:00;;;;;;;45.43;24.00;;;;;;;-2.02;71.14;99436.98;4202505;83;21015;-86
2022/03/07 03:54:51;;;;;;;41.50;23.17;;;;;;;-2.02;70.56;99432.95;4119721;85;21062;-86
2022/03/07 04:21:59;;;;;;;45.97;21.50;;;;;;;-2.13;69.75;99413.44;4236177;82;21140;-86
2022/03/07 04:28:01;;;;;;;44.63;21.57;;;;;;;-2.17;69.33;99409.73;4221568;83;21088;-86
2022/03/07 04:34:27;;;;;;;37.37;20.60;;;;;;;-2.20;68.99;99409.49;4253889;83;21340;-85
2022/03/07 04:40:56;;;;;;;39.97;20.60;;;;;;;-2.24;69.04;99403.11;4229316;83;21561;-86
2022/03/07 04:47:28;;;;;;;32.10;19.07;;;;;;;-2.27;68.22;99409.03;4238416;83;21042;-86
2022/03/07 04:53:52;;;;;;;37.23;18.10;;;;;;;-2.25;67.88;99409.00;4161893;83;21030;-86
2022/03/07 05:00:26;;;;;;;32.50;17.53;;;;;;;-2.22;67.42;99405.75;4178645;83;21617;-86
2022/03/07 05:20:28;;;;;;;36.67;17.80;;;;;;;-2.27;67.05;99418.42;4041010;87;21079;-87
2022/03/07 05:26:30;;;;;;;37.03;19.40;;;;;;;-2.25;66.56;99421.06;4037857;87;21083;-86
2022/03/07 05:32:31;;;;;;;39.23;20.43;;;;;;;-2.21;66.28;99436.06;3990479;87;21055;-86
2022/03/07 05:38:41;;;;;;;39.83;21.00;;;;;;;-2.20;66.41;99430.42;4114572;83;21031;-85
2022/03/07 05:51:24;;;;;;;47.03;23.57;;;;;;;-2.19;66.58;99434.69;4173150;83;21601;-86
2022/03/07 06:11:30;;;;;;;49.53;25.30;;;;;;;-2.14;66.52;99448.06;4195641;83;21011;-87
2022/03/07 06:17:34;;;;;;;45.43;25.57;;;;;;;-2.11;66.29;99451.52;4199990;83;21324;-87
2022/03/07 06:23:36;;;;;;;52.40;25.90;;;;;;;-2.09;66.29;99457.95;4211536;83;21261;-88
2022/03/07 06:29:40;;;;;;;47.00;23.07;;;;;;;-2.05;66.38;99461.69;4213004;83;21060;-86
2022/03/07 06:43:23;;;;;;;35.30;19.27;;;;;;;-1.92;66.27;99452.96;4188582;83;21093;-86
2022/03/07 06:49:59;;;;;;;34.88;20.65;;;;;;;-1.89;66.60;99457.23;4144123;85;21019;-86
2022/03/07 07:03:07;;;;;;;38.27;20.53;;;;;;;-1.74;66.83;99458.98;4148421;83;21203;-86
2022/03/07 07:09:11;;;;;;;36.67;19.27;;;;;;;-1.67;67.28;99453.53;4193614;83;21121;-86
2022/03/07 07:15:28;;;;;;;38.35;20.95;;;;;;;-1.54;67.21;99468.16;4202165;83;21647;-86
2022/03/07 07:28:48;;;;;;;33.98;19.52;;;;;;;-1.36;67.29;99474.69;4214424;83;21561;-86
2022/03/07 07:34:50;;;;;;;34.23;20.80;;;;;;;-1.25;67.39;99458.72;4146744;85;21023;-86
2022/03/07 07:40:51;;;;;;;37.65;20.45;;;;;;;-1.12;67.43;99463.38;4154374;84;21034;-87
2022/03/07 07:46:54;;;;;;;32.80;19.17;;;;;;;-1.12;67.43;99463.38;4209815;83;21030;-87
2022/03/07 07:52:55;;;;;;;41.08;22.20;;;;;;;-1.09;67.57;99468.17;4185413;84;21039;-88
2022/03/07 07:58:57;;;;;;;36.42;19.75;;;;;;;-0.88;67.81;99470.34;4188803;83;21051;-88
2022/03/07 08:04:58;;;;;;;33.48;19.35;;;;;;;-0.88;67.81;99470.34;4155265;83;21099;-89
2022/03/07 08:10:59;;;;;;;34.30;18.92;;;;;;;-0.80;67.64;99471.02;4146297;83;21973;-91
2022/03/07 08:17:00;;;;;;;36.00;19.67;;;;;;;-0.75;67.63;99471.52;4146769;83;21051;-90
2022/03/07 08:23:04;;;;;;;35.00;18.75;;;;;;;-0.67;67.61;99481.59;4147704;84;21014;-89
2022/03/07 08:29:05;;;;;;;29.48;16.52;;;;;;;-0.59;67.53;99474.23;4145212;84;21079;-90
2022/03/07 08:35:10;;;;;;;34.53;17.42;;;;;;;-0.57;67.31;99474.21;4140070;83;21020;-91
2022/03/07 08:41:12;;;;;;;38.67;19.07;;;;;;;-0.55;67.52;99459.91;4153510;83;21594;-88
2022/03/07 08:47:14;;;;;;;35.35;19.48;;;;;;;-0.45;67.24;99460.31;4160340;83;21965;-88
2022/03/07 08:53:33;;;;;;;33.02;19.23;;;;;;;-0.18;67.17;99464.47;4226021;83;21115;-88
2022/03/07 08:59:54;;;;;;;35.55;19.23;;;;;;;0.07;67.14;99457.87;4222535;83;20992;-88
2022/03/07 09:05:55;;;;;;;30.85;18.02;;;;;;;0.42;67.03;99454.02;4201949;83;21064;-87
2022/03/07 09:11:57;;;;;;;20.75;13.45;;;;;;;0.45;66.22;99458.81;4190080;82;21012;-88
2022/03/07 09:17:58;;;;;;;28.23;15.83;;;;;;;0.47;65.75;99458.52;4184903;84;21468;-88
2022/03/07 09:23:59;;;;;;;24.67;15.13;;;;;;;0.63;65.86;99457.92;4176676;84;21781;-89
2022/03/07 09:30:01;;;;;;;30.30;15.65;;;;;;;0.87;65.57;99463.92;4184121;84;21783;-87
2022/03/07 09:36:04;;;;;;;29.25;18.15;;;;;;;1.09;65.40;99457.80;4184992;84;21478;-87
2022/03/07 09:42:06;;;;;;;26.93;16.60;;;;;;;1.26;65.60;99457.98;4196645;84;21073;-87
2022/03/07 09:48:12;;;;;;;32.15;20.45;;;;;;;1.29;65.00;99459.52;4190922;84;21040;-88
2022/03/07 09:54:15;;;;;;;28.27;16.75;;;;;;;1.38;64.89;99464.44;4153369;84;21052;-86
2022/03/07 10:00:42;;;;;;;24.15;13.53;;;;;;;1.53;64.54;99458.70;4185937;84;21021;-88
2022/03/07 10:06:52;;;;;;;23.93;12.17;;;;;;;1.75;63.70;99455.79;4173228;83;21248;-87
2022/03/07 10:12:54;;;;;;;16.55;10.85;;;;;;;1.86;63.18;99453.91;4210957;83;21653;-88
2022/03/07 10:18:55;;;;;;;16.73;11.78;;;;;;;2.09;63.17;99454.13;4231905;83;22006;-87
2022/03/07 10:25:06;;;;;;;22.42;14.20;;;;;;;2.17;62.20;99450.70;4226987;82;20999;-89
2022/03/07 10:31:13;;;;;;;25.40;12.90;;;;;;;2.15;61.90;99457.49;4230308;83;21677;-87
2022/03/07 10:37:15;;;;;;;20.52;13.05;;;;;;;1.97;62.06;99449.86;4230192;82;21043;-86
2022/03/07 10:43:28;;;;;;;24.30;13.72;;;;;;;2.17;61.93;99453.39;4229128;82;22021;-88
2022/03/07 10:49:50;;;;;;;18.67;11.95;;;;;;;2.42;61.45;99435.72;4235942;82;21123;-86
2022/03/07 10:55:52;;;;;;;21.27;12.23;;;;;;;2.57;61.37;99442.09;4207616;83;21111;-88
2022/03/07 11:02:04;;;;;;;22.77;11.85;;;;;;;2.77;60.83;99446.36;4234599;83;21064;-87
2022/03/07 11:08:24;;;;;;;21.12;12.47;;;;;;;2.66;60.49;99443.69;4225039;83;21242;-87
2022/03/07 11:14:31;;;;;;;19.42;11.25;;;;;;;2.32;60.85;99438.70;4209738;83;21049;-87
2022/03/07 11:20:45;;;;;;;20.57;10.68;;;;;;;2.48;60.96;99425.02;4222007;83;20988;-88
2022/03/07 11:27:01;;;;;;;16.87;9.90;;;;;;;3.06;60.00;99422.28;4185724;83;21095;-87
2022/03/07 11:33:25;;;;;;;19.05;10.03;;;;;;;3.23;59.78;99428.84;4142322;82;3548309;-88
2022/03/07 11:39:45;;;;;;;21.10;10.88;;;;;;;3.26;59.61;99422.80;4272843;82;21050;-86
2022/03/07 11:45:48;;;;;;;14.53;8.70;;;;;;;3.27;59.42;99423.83;4285635;81;21154;-88
2022/03/07 11:52:03;;;;;;;17.85;8.68;;;;;;;3.01;59.24;99421.62;4234952;81;21092;-87
2022/03/07 11:58:10;;;;;;;15.08;8.08;;;;;;;3.27;59.47;99404.09;4282095;81;21166;-87
2022/03/07 12:04:24;;;;;;;9.50;4.47;;;;;;;3.23;58.78;99391.74;4290460;81;21010;-88
2022/03/07 12:11:02;;;;;;;12.85;6.25;;;;;;;3.12;58.25;99387.20;4298392;81;21837;-88
2022/03/07 12:17:27;;;;;;;12.93;6.80;;;;;;;2.99;58.03;99379.23;4105834;85;21586;-87
2022/03/07 12:23:35;;;;;;;14.83;6.00;;;;;;;2.92;57.50;99378.89;4056254;82;5860200;-87
2022/03/07 12:36:09;;;;;;;12.10;6.50;;;;;;;2.56;56.68;99366.16;4663039;74;22915;-87
2022/03/07 12:42:12;;;;;;;12.95;7.70;;;;;;;2.51;56.61;99371.70;4590741;75;21038;-86
2022/03/07 12:48:14;;;;;;;13.05;6.95;;;;;;;2.64;56.81;99366.19;4569052;75;20973;-87
2022/03/07 12:54:17;;;;;;;17.55;8.20;;;;;;;2.73;56.48;99364.84;4607555;75;21344;-87
2022/03/07 13:00:20;;;;;;;18.67;9.65;;;;;;;2.86;56.67;99364.74;4594657;75;21018;-87
2022/03/07 13:06:26;;;;;;;21.52;9.75;;;;;;;2.96;56.62;99360.94;4601073;75;21039;-86
2022/03/07 13:12:33;;;;;;;21.60;9.83;;;;;;;2.97;56.36;99360.63;4599961;75;21534;-87
2022/03/07 13:18:34;;;;;;;19.62;8.85;;;;;;;3.04;56.30;99356.08;4591865;75;21090;-87
2022/03/07 13:24:37;;;;;;;21.25;10.82;;;;;;;2.96;56.02;99350.12;4589405;75;21499;-87
2022/03/07 13:30:40;;;;;;;16.85;9.05;;;;;;;2.97;56.32;99348.45;4564032;75;21488;-87
2022/03/07 13:36:52;;;;;;;17.95;9.68;;;;;;;2.90;56.18;99340.55;4554907;75;21539;-86
2022/03/07 13:42:56;;;;;;;21.73;10.93;;;;;;;3.04;56.39;99329.03;4583019;75;21364;-86
2022/03/07 13:49:04;;;;;;;18.50;9.45;;;;;;;3.09;54.47;99322.92;4585698;75;21489;-86
2022/03/07 13:55:13;;;;;;;28.87;12.20;;;;;;;3.14;55.28;99327.38;4588167;75;21554;-87
2022/03/07 14:01:14;;;;;;;23.07;9.50;;;;;;;3.28;55.66;99325.30;4578236;75;21046;-87
2022/03/07 14:07:21;;;;;;;22.05;10.65;;;;;;;3.36;55.91;99327.77;4585993;75;21008;-87
2022/03/07 14:13:23;;;;;;;21.62;10.72;;;;;;;3.44;55.46;99319.65;4599138;75;21622;-87
2022/03/07 14:19:24;;;;;;;20.00;11.10;;;;;;;3.50;55.21;99322.97;4588338;75;21007;-87
2022/03/07 14:25:26;;;;;;;28.75;9.78;;;;;;;3.31;55.27;99325.21;4586280;75;20998;-87
2022/03/07 14:31:28;;;;;;;22.20;9.88;;;;;;;3.28;55.32;99323.95;4610834;75;21075;-87
2022/03/07 14:37:33;;;;;;;20.32;10.65;;;;;;;3.27;55.49;99314.25;4594345;75;21018;-88
2022/03/07 14:43:36;;;;;;;20.48;10.45;;;;;;;3.17;55.33;99318.62;4584219;75;21029;-88
2022/03/07 14:49:38;;;;;;;22.45;10.50;;;;;;;2.97;55.48;99318.70;4586693;75;21028;-88
2022/03/07 14:55:39;;;;;;;20.37;9.60;;;;;;;2.89;55.64;99321.39;4599323;75;21038;-87
2022/03/07 15:01:41;;;;;;;26.95;11.78;;;;;;;2.76;55.79;99318.26;4598369;75;21556;-87
2022/03/07 15:07:42;;;;;;;26.75;12.05;;;;;;;2.56;55.79;99319.66;4585291;75;21550;-87
2022/03/07 15:13:43;;;;;;;20.45;11.43;;;;;;;2.58;56.21;99317.45;4576636;75;20966;-88
2022/03/07 15:19:46;;;;;;;23.45;12.80;;;;;;;2.61;56.40;99322.23;4591297;75;20987;-87
2022/03/07 15:25:51;;;;;;;26.73;13.30;;;;;;;2.48;55.97;99323.69;4583991;75;20983;-87
2022/03/07 15:31:52;;;;;;;25.05;11.85;;;;;;;2.42;56.29;99313.59;4586638;75;21011;-88
2022/03/07 15:37:53;;;;;;;25.02;12.37;;;;;;;2.31;56.26;99315.53;4570078;75;21034;-87
2022/03/07 15:43:55;;;;;;;25.90;13.20;;;;;;;2.20;56.32;99307.47;4598784;75;20971;-88
2022/03/07 15:49:56;;;;;;;27.73;14.00;;;;;;;2.07;56.80;99313.21;4574812;75;22195;-89
2022/03/07 15:55:59;;;;;;;42.90;21.52;;;;;;;1.99;56.67;99310.49;4555639;75;21034;-88
2022/03/07 16:02:00;;;;;;;31.25;16.35;;;;;;;1.91;56.64;99326.87;4584202;75;21276;-87
2022/03/07 16:08:02;;;;;;;29.60;14.40;;;;;;;1.72;57.13;99308.77;4593734;75;21023;-87
2022/03/07 16:14:06;;;;;;;29.80;15.48;;;;;;;1.58;57.78;99317.50;4571313;75;21021;-88
2022/03/07 16:20:09;;;;;;;41.90;18.12;;;;;;;1.51;57.97;99311.72;4594603;75;21065;-88
2022/03/07 16:26:11;;;;;;;39.55;18.98;;;;;;;1.44;58.36;99311.38;4593535;75;21008;-88
2022/03/07 16:32:13;;;;;;;39.08;19.65;;;;;;;1.36;58.74;99317.50;4554646;75;21132;-87
2022/03/07 16:38:15;;;;;;;41.45;19.50;;;;;;;1.26;59.32;99325.28;4593229;75;21005;-88
2022/03/07 16:44:16;;;;;;;46.48;22.27;;;;;;;1.19;59.77;99316.80;4600355;75;21013;-87
2022/03/07 16:50:18;;;;;;;45.95;22.52;;;;;;;1.14;59.93;99335.02;4579547;75;21105;-88
2022/03/07 16:56:20;;;;;;;45.33;23.65;;;;;;;1.09;60.49;99335.12;4594011;75;21014;-88
2022/03/07 17:02:21;;;;;;;48.35;23.83;;;;;;;1.07;60.39;99346.77;4603812;75;21971;-88
2022/03/07 17:08:23;;;;;;;40.90;20.77;;;;;;;0.98;60.74;99351.28;4592977;75;21088;-87
2022/03/07 17:14:25;;;;;;;58.87;25.52;;;;;;;0.99;60.64;99365.80;4600191;75;21012;-87
2022/03/07 17:20:27;;;;;;;59.75;27.48;;;;;;;0.89;61.61;99370.63;4600758;75;20986;-87
2022/03/07 17:26:28;;;;;;;49.77;24.30;;;;;;;0.93;61.92;99374.30;4596743;75;21313;-86
2022/03/07 17:32:30;;;;;;;61.85;29.37;;;;;;;0.96;61.92;99375.84;4592907;75;21008;-87
2022/03/07 17:38:31;;;;;;;46.85;22.30;;;;;;;0.98;62.58;99379.59;4587618;75;21026;-88
2022/03/07 17:44:35;;;;;;;47.55;22.73;;;;;;;1.02;62.90;99394.05;4580686;75;21656;-88
2022/03/07 17:50:36;;;;;;;41.40;20.97;;;;;;;1.01;63.60;99394.62;4588206;75;21056;-88
2022/03/07 17:56:37;;;;;;;73.47;28.87;;;;;;;1.01;64.61;99397.85;4473441;75;9999855;-87
2022/03/07 18:02:41;;;;;;;52.10;23.67;;;;;;;0.96;65.09;99407.39;4581768;75;21053;-88
2022/03/07 18:08:42;;;;;;;109.65;44.70;;;;;;;0.93;65.42;99410.69;4574109;75;21470;-87
2022/03/07 18:14:46;;;;;;;66.33;30.77;;;;;;;0.91;65.47;99406.17;4572400;75;20997;-88
2022/03/07 18:20:47;;;;;;;69.15;32.40;;;;;;;0.87;66.06;99411.91;4591537;75;20975;-87
2022/03/07 18:26:49;;;;;;;70.37;35.05;;;;;;;0.82;66.25;99419.55;4597127;75;21030;-88
2022/03/07 18:32:50;;;;;;;55.88;29.10;;;;;;;0.78;66.68;99421.27;4590719;75;21003;-88
2022/03/07 18:38:51;;;;;;;66.95;32.93;;;;;;;0.72;66.68;99421.66;4638649;75;21696;-88
2022/03/07 18:44:55;;;;;;;61.18;31.37;;;;;;;0.61;67.14;99426.42;4643790;75;20976;-88
2022/03/07 18:50:58;;;;;;;59.18;31.12;;;;;;;0.51;67.44;99428.52;4615993;75;21346;-88
2022/03/07 18:56:59;;;;;;;68.17;34.15;;;;;;;0.38;67.35;99429.30;4648225;75;21007;-87
2022/03/07 19:03:00;;;;;;;70.22;34.08;;;;;;;0.24;68.14;99434.68;4635788;75;21490;-88
2022/03/07 19:09:03;;;;;;;77.87;37.85;;;;;;;0.19;68.37;99439.38;4634346;75;20983;-88
2022/03/07 19:15:06;;;;;;;78.15;37.93;;;;;;;0.16;68.78;99444.00;4646654;75;21004;-87
2022/03/07 19:21:08;;;;;;;84.45;38.83;;;;;;;0.13;68.98;99448.60;4654489;75;21729;-87
2022/03/07 19:27:09;;;;;;;76.67;37.40;;;;;;;0.07;69.06;99453.30;4623557;75;21409;-87
2022/03/07 19:33:13;;;;;;;88.00;39.70;;;;;;;0.00;69.19;99456.36;4649342;75;20995;-88
2022/03/07 19:39:17;;;;;;;82.62;40.80;;;;;;;-0.06;69.39;99456.20;4650208;75;21043;-88
2022/03/07 19:45:20;;;;;;;83.80;39.38;;;;;;;-0.16;70.00;99464.42;4629592;75;21488;-87
2022/03/07 19:51:21;;;;;;;83.12;36.98;;;;;;;-0.14;70.38;99463.59;4635390;75;21026;-87
2022/03/07 19:57:23;;;;;;;70.70;36.70;;;;;;;-0.09;71.07;99466.20;4634121;75;21447;-87
2022/03/07 20:03:24;;;;;;;85.90;40.67;;;;;;;-0.09;71.07;99466.20;4637115;75;21073;-88
2022/03/07 20:09:26;;;;;;;89.13;41.68;;;;;;;-0.05;71.39;99475.84;4637674;75;20992;-88
2022/03/07 20:15:28;;;;;;;83.97;41.88;;;;;;;-0.03;71.37;99478.48;4623991;75;21039;-88
2022/03/07 20:21:46;;;;;;;87.07;41.60;;;;;;;-0.02;71.80;99476.03;4659000;75;21003;-87
2022/03/07 20:27:48;;;;;;;84.40;42.80;;;;;;;0.00;71.95;99482.50;4642058;75;20958;-86
2022/03/07 20:33:49;;;;;;;98.10;46.80;;;;;;;0.01;72.23;99492.16;4493596;75;10000379;-87
2022/03/07 20:39:51;;;;;;;92.27;44.93;;;;;;;0.03;71.85;99494.02;4582374;75;21485;-87
2022/03/07 20:45:52;;;;;;;97.70;48.70;;;;;;;-0.14;71.73;99469.51;4618891;75;21469;-88
2022/03/07 20:51:54;;;;;;;110.22;52.93;;;;;;;-0.24;71.60;99484.48;4570687;75;21046;-87
2022/03/07 20:57:55;;;;;;;100.22;50.00;;;;;;;-0.24;71.60;99484.48;4575811;75;21396;-86
2022/03/07 21:03:57;;;;;;;106.12;50.35;;;;;;;-0.18;71.73;99510.22;4591359;75;20984;-87
2022/03/07 21:09:58;;;;;;;106.27;50.95;;;;;;;-0.24;71.88;99507.35;4599452;75;21793;-86
2022/03/07 21:15:59;;;;;;;114.03;52.65;;;;;;;-0.49;72.16;99513.09;4606331;75;21402;-87
2022/03/07 21:22:02;;;;;;;109.42;52.62;;;;;;;-0.49;72.16;99513.09;4592223;75;21772;-87
2022/03/07 21:28:04;;;;;;;109.92;51.65;;;;;;;-0.67;72.55;99519.23;4598041;75;21007;-87
2022/03/07 21:34:05;;;;;;;111.00;53.50;;;;;;;-0.86;74.21;99511.71;4585446;75;21056;-86
2022/03/07 21:40:09;;;;;;;117.47;55.53;;;;;;;-1.07;73.37;99515.19;4588728;75;21081;-87
2022/03/07 21:46:12;;;;;;;110.90;51.27;;;;;;;-1.14;73.71;99511.25;4594852;75;21002;-87
2022/03/07 21:52:14;;;;;;;111.80;51.07;;;;;;;-1.20;73.44;99515.86;4603086;75;21020;-87
2022/03/07 21:58:30;;;;;;;119.85;56.50;;;;;;;-1.31;73.58;99512.21;4603209;75;21833;-87
2022/03/07 22:11:36;;;;;;;113.70;52.03;;;;;;;-1.52;74.95;99517.55;4626832;75;21492;-86
2022/03/07 22:25:09;;;;;;;119.00;53.20;;;;;;;-1.58;75.76;99514.66;4591559;75;21047;-86
2022/03/07 22:38:03;;;;;;;109.77;50.30;;;;;;;-1.75;76.19;99519.09;4603872;75;21025;-88
2022/03/07 22:44:05;;;;;;;106.73;49.40;;;;;;;-1.79;77.52;99516.72;4603499;75;21048;-87
2022/03/07 22:50:08;;;;;;;115.60;50.37;;;;;;;-1.82;76.95;99517.29;4610262;75;20958;-88
2022/03/07 22:56:10;;;;;;;118.03;52.97;;;;;;;-1.82;78.96;99515.95;4599480;75;21012;-87
2022/03/07 23:02:12;;;;;;;106.77;50.10;;;;;;;-1.92;78.00;99516.83;4604291;75;21833;-87
2022/03/07 23:15:45;;;;;;;117.23;52.00;;;;;;;-1.97;78.06;99513.37;4599642;75;20997;-88
2022/03/07 23:21:46;;;;;;;108.30;48.17;;;;;;;-1.92;78.43;99514.14;4615059;75;21594;-88
2022/03/07 23:27:49;;;;;;;102.93;45.70;;;;;;;-1.83;78.39;99514.33;4559443;75;20986;-87
2022/03/07 23:33:50;;;;;;;99.83;45.63;;;;;;;-1.78;78.72;99510.27;4607259;75;21023;-87
2022/03/07 23:39:51;;;;;;;99.97;45.17;;;;;;;-1.72;78.95;99513.16;4580204;75;21013;-87
2022/03/07 23:46:14;;;;;;;103.57;45.30;;;;;;;-1.66;79.08;99518.20;4616706;75;21508;-87
2022/03/07 23:52:16;;;;;;;98.30;45.40;;;;;;;-1.60;79.53;99517.06;4579446;75;21411;-88
2022/03/07 23:58:17;;;;;;;91.63;40.37;;;;;;;-1.54;79.59;99522.39;4589405;75;21699;-88
